Time;durP1;ratioP1;P1;durP2;ratioP2;P2;SDS_P1;SDS_P2;PMS_P1;PMS_P2;Temp;Humidity;BMP_temperature;BMP_pressure;BME280_temperature;BME280_humidity;BME280_pressure;Samples;Min_cycle;Max_cycle;Signal;HPM_P1;HPM_P2
2021/01/05 00:01:58;;;;;;;25.63;14.38;;;;;;;0.44;81.18;98281.34;4975027;28;20041;-68
2021/01/05 00:04:24;;;;;;;23.75;13.55;;;;;;;0.29;81.32;98281.09;4974340;28;20077;-68
2021/01/05 00:06:49;;;;;;;24.27;12.70;;;;;;;0.25;81.88;98283.63;4974883;28;20022;-69
2021/01/05 00:09:14;;;;;;;25.60;14.18;;;;;;;0.35;84.35;98278.66;4975056;28;20034;-68
2021/01/05 00:12:00;;;;;;;24.95;13.80;;;;;;;0.40;84.93;98279.59;4974784;28;20027;-69
2021/01/05 00:14:26;;;;;;;21.95;13.07;;;;;;;0.51;83.31;98278.03;4974931;28;20056;-68
2021/01/05 00:16:51;;;;;;;22.98;13.30;;;;;;;0.39;83.88;98285.53;4974892;28;20488;-69
2021/01/05 00:19:18;;;;;;;24.73;13.45;;;;;;;0.44;83.06;98277.09;4974755;28;20026;-68
2021/01/05 00:21:43;;;;;;;22.30;13.10;;;;;;;0.40;82.98;98284.69;4974455;28;20034;-68
2021/01/05 00:24:08;;;;;;;21.95;13.35;;;;;;;0.36;83.79;98286.31;4974748;28;20034;-69
2021/01/05 00:26:36;;;;;;;21.60;12.77;;;;;;;0.47;83.09;98286.47;4974712;28;20037;-69
2021/01/05 00:29:01;;;;;;;20.75;13.30;;;;;;;0.48;82.69;98283.97;4974520;28;20093;-69
2021/01/05 00:31:27;;;;;;;21.73;12.15;;;;;;;0.51;83.97;98290.78;4974546;28;20034;-69
2021/01/05 00:33:52;;;;;;;22.65;13.13;;;;;;;0.45;83.13;98283.06;4974469;28;20056;-68
2021/01/05 00:36:17;;;;;;;23.95;13.98;;;;;;;0.39;83.34;98290.63;4974494;28;20030;-68
2021/01/05 00:38:42;;;;;;;22.13;12.80;;;;;;;0.31;84.60;98292.19;4974433;28;20023;-68
2021/01/05 00:41:08;;;;;;;23.30;12.80;;;;;;;0.44;82.38;98286.44;4974326;28;20042;-69
2021/01/05 00:43:33;;;;;;;30.17;14.88;;;;;;;0.34;82.56;98289.66;4974231;28;20487;-68
2021/01/05 00:45:58;;;;;;;24.98;13.40;;;;;;;0.45;84.42;98295.78;4974417;28;20138;-69
2021/01/05 00:48:24;;;;;;;28.38;13.93;;;;;;;0.39;82.46;98288.06;4974054;28;20041;-69
2021/01/05 00:50:49;;;;;;;23.08;13.35;;;;;;;0.37;83.68;98298.22;4974215;28;20026;-69
2021/01/05 00:53:14;;;;;;;24.17;14.20;;;;;;;0.23;84.08;98298.00;4974152;28;20495;-69
2021/01/05 00:55:40;;;;;;;25.58;13.88;;;;;;;0.42;83.11;98294.03;4974137;28;20145;-69
2021/01/05 00:58:05;;;;;;;22.23;13.25;;;;;;;0.39;83.64;98304.22;4974048;28;20036;-69
2021/01/05 07:02:33;;;;;;;52.90;31.17;;;;;;;1.03;88.01;98360.31;4972075;23;20499;-70
2021/01/05 07:04:58;;;;;;;47.08;26.63;;;;;;;1.17;87.16;98358.81;4972575;28;20042;-72
2021/01/05 07:07:24;;;;;;;39.42;20.88;;;;;;;0.93;88.44;98363.59;4972522;28;20025;-72
2021/01/05 07:09:49;;;;;;;41.63;19.88;;;;;;;1.08;87.89;98357.84;4972588;28;20475;-72
2021/01/05 07:12:14;;;;;;;39.88;20.00;;;;;;;0.92;88.99;98366.97;4969119;28;20037;-72
2021/01/05 07:14:39;;;;;;;39.38;21.45;;;;;;;1.02;88.24;98368.81;4970427;28;20027;-70
2021/01/05 07:17:05;;;;;;;48.38;24.20;;;;;;;0.92;88.53;98370.38;4973492;28;20493;-70
2021/01/05 07:19:30;;;;;;;38.80;20.58;;;;;;;0.80;88.73;98371.91;4974230;28;20113;-70
2021/01/05 07:21:55;;;;;;;37.40;20.75;;;;;;;0.75;89.16;98369.28;4975764;28;20165;-71
2021/01/05 07:24:21;;;;;;;39.70;21.88;;;;;;;0.72;89.49;98375.19;4975907;28;20447;-71
2021/01/05 07:26:48;;;;;;;39.65;21.27;;;;;;;0.74;90.24;98383.72;4975561;28;20035;-71
2021/01/05 07:29:20;;;;;;;41.75;20.92;;;;;;;0.76;90.57;98382.03;4975747;28;20030;-71
2021/01/05 07:31:46;;;;;;;41.63;21.65;;;;;;;0.80;91.38;98382.09;4975636;28;20027;-71
2021/01/05 07:34:12;;;;;;;47.10;22.90;;;;;;;0.88;89.96;98375.44;4975726;28;20484;-71
2021/01/05 07:36:44;;;;;;;45.60;21.58;;;;;;;0.89;89.88;98382.22;4975441;28;20035;-72
2021/01/05 07:39:21;;;;;;;41.20;20.52;;;;;;;0.84;89.84;98383.88;4975622;28;20109;-72
2021/01/05 07:41:47;;;;;;;41.03;20.02;;;;;;;0.77;90.60;98377.81;4975407;28;20031;-72
2021/01/05 07:44:13;;;;;;;36.42;19.55;;;;;;;0.88;90.80;98380.53;4974822;28;20022;-72
2021/01/05 07:46:38;;;;;;;46.72;23.83;;;;;;;0.81;90.05;98383.81;4975487;28;20033;-71
2021/01/05 07:49:04;;;;;;;48.75;24.15;;;;;;;0.94;90.72;98380.59;4969130;28;20098;-71
2021/01/05 07:51:29;;;;;;;44.05;22.13;;;;;;;0.80;90.94;98377.84;4955878;28;20035;-72
2021/01/05 07:53:54;;;;;;;40.55;22.42;;;;;;;0.75;91.22;98380.34;4956081;28;20031;-71
2021/01/05 07:56:20;;;;;;;40.92;21.33;;;;;;;0.70;91.51;98387.06;4955758;28;20143;-72
2021/01/05 07:58:45;;;;;;;44.00;21.85;;;;;;;0.75;92.80;98385.44;4960815;28;20014;-72
2021/01/05 08:01:10;;;;;;;42.75;22.33;;;;;;;0.66;92.42;98389.53;4974797;28;20041;-71
2021/01/05 08:03:36;;;;;;;42.00;21.80;;;;;;;0.56;92.73;98392.78;4974605;28;20074;-71
2021/01/05 08:06:06;;;;;;;42.38;21.80;;;;;;;0.60;92.36;98390.31;4973845;28;20030;-72
2021/01/05 08:08:31;;;;;;;41.83;22.02;;;;;;;0.75;92.22;98389.69;4974967;28;20038;-73
2021/01/05 08:10:57;;;;;;;47.05;23.05;;;;;;;0.77;91.71;98385.44;4974782;28;20026;-72
2021/01/05 08:13:22;;;;;;;46.25;22.02;;;;;;;0.67;91.57;98387.00;4974908;28;20035;-75
2021/01/05 08:15:47;;;;;;;42.88;21.77;;;;;;;0.89;92.30;98383.09;4973704;28;20027;-75
2021/01/05 08:18:13;;;;;;;45.17;23.75;;;;;;;0.74;92.21;98396.47;4974769;28;20037;-76
2021/01/05 08:20:38;;;;;;;41.28;22.52;;;;;;;0.88;92.04;98391.59;4973103;28;20035;-74
2021/01/05 08:23:04;;;;;;;48.33;24.17;;;;;;;0.89;91.24;98388.19;4974972;28;20037;-72
2021/01/05 08:25:31;;;;;;;45.55;23.95;;;;;;;0.96;92.50;98394.22;4973040;28;20031;-72
2021/01/05 08:27:57;;;;;;;42.25;22.90;;;;;;;0.98;92.01;98390.00;4974702;28;20101;-72
2021/01/05 08:30:25;;;;;;;45.53;23.13;;;;;;;0.92;91.33;98382.25;4974668;28;20132;-71
2021/01/05 08:32:51;;;;;;;42.08;22.63;;;;;;;0.87;91.40;98381.34;4973834;28;20034;-73
2021/01/05 08:35:21;;;;;;;39.80;22.95;;;;;;;0.89;91.28;98382.22;4974627;28;20029;-72
2021/01/05 08:37:46;;;;;;;48.53;23.55;;;;;;;0.85;91.93;98383.03;4974181;28;20023;-72
2021/01/05 08:40:26;;;;;;;49.05;25.48;;;;;;;1.09;92.32;98374.84;4974421;28;20037;-73
2021/01/05 08:42:52;;;;;;;48.92;21.90;;;;;;;1.10;91.09;98381.66;4974420;28;20092;-71
2021/01/05 08:45:17;;;;;;;45.00;22.10;;;;;;;1.09;91.22;98375.69;4974063;28;20030;-73
2021/01/05 08:47:46;;;;;;;46.88;24.10;;;;;;;1.10;92.81;98377.41;4974272;28;20030;-72
2021/01/05 08:50:16;;;;;;;41.95;22.23;;;;;;;1.17;91.26;98386.88;4963310;28;20162;-72
2021/01/05 08:52:41;;;;;;;47.72;22.15;;;;;;;1.22;90.85;98382.69;4973473;28;20037;-71
2021/01/05 08:55:07;;;;;;;37.63;21.40;;;;;;;1.17;90.20;98374.13;4974133;28;20027;-71
2021/01/05 08:57:32;;;;;;;38.47;21.58;;;;;;;1.12;90.71;98378.31;4973634;28;20058;-70
2021/01/05 08:59:58;;;;;;;43.00;22.10;;;;;;;1.03;91.01;98373.06;4988992;28;20034;-72
2021/01/05 09:02:23;;;;;;;38.63;21.35;;;;;;;0.99;91.88;98373.88;4972368;28;20141;-72
2021/01/05 09:04:48;;;;;;;45.88;22.55;;;;;;;1.09;91.54;98380.81;4974143;28;20109;-71
2021/01/05 09:07:18;;;;;;;42.67;21.63;;;;;;;1.27;90.42;98370.84;4972540;28;20054;-72
2021/01/05 09:09:44;;;;;;;37.20;20.90;;;;;;;1.25;89.87;98379.28;4974245;28;20031;-71
2021/01/05 09:12:09;;;;;;;43.58;20.92;;;;;;;1.20;90.56;98376.69;4956639;28;20365;-75
2021/01/05 09:14:35;;;;;;;37.80;20.85;;;;;;;1.21;91.09;98370.78;4954469;28;20027;-73
2021/01/05 09:17:01;;;;;;;38.47;21.30;;;;;;;1.20;90.89;98373.28;4954303;29;20091;-73
2021/01/05 09:19:27;;;;;;;41.83;21.42;;;;;;;1.26;90.70;98379.34;4953267;29;20023;-72
2021/01/05 09:21:53;;;;;;;61.42;28.92;;;;;;;1.24;90.41;98378.44;4955399;28;20158;-77
2021/01/05 09:24:19;;;;;;;66.20;29.23;;;;;;;1.28;90.95;98382.75;4956557;28;20522;-73
2021/01/05 09:26:49;;;;;;;68.95;30.38;;;;;;;1.40;90.78;98386.28;4954413;28;20078;-72
2021/01/05 09:29:15;;;;;;;104.60;37.15;;;;;;;1.41;91.20;98382.91;4952712;28;20047;-73
2021/01/05 09:31:42;;;;;;;70.68;31.80;;;;;;;1.34;90.55;98386.22;4954530;28;20059;-71
2021/01/05 09:34:08;;;;;;;47.47;24.77;;;;;;;1.38;91.73;98387.97;4954495;28;20468;-73
2021/01/05 09:36:35;;;;;;;37.45;20.27;;;;;;;1.49;89.79;98382.13;4959150;28;20031;-72
2021/01/05 09:39:03;;;;;;;41.78;20.52;;;;;;;1.67;89.63;98376.38;4973219;28;20439;-70
2021/01/05 09:41:33;;;;;;;39.20;21.55;;;;;;;1.59;89.86;98375.44;4972699;28;20038;-70
2021/01/05 09:43:58;;;;;;;33.88;18.90;;;;;;;1.62;89.78;98377.19;4973362;28;20176;-71
2021/01/05 09:46:25;;;;;;;36.80;19.40;;;;;;;1.50;89.77;98388.13;4955281;28;20520;-69
2021/01/05 09:48:51;;;;;;;34.72;19.77;;;;;;;1.52;89.17;98387.28;4953942;28;20029;-69
2021/01/05 09:51:24;;;;;;;36.97;20.77;;;;;;;1.58;88.77;98394.16;4953291;28;20050;-69
2021/01/05 09:53:50;;;;;;;42.08;23.33;;;;;;;1.66;89.34;98390.00;4954167;28;20126;-69
2021/01/05 09:56:16;;;;;;;38.03;21.27;;;;;;;1.71;89.05;98375.59;4953851;28;20383;-67
2021/01/05 09:58:42;;;;;;;34.55;20.35;;;;;;;1.70;88.60;98376.44;4953786;28;20043;-70
2021/01/05 10:01:08;;;;;;;36.25;19.90;;;;;;;2.08;87.65;98378.53;4953538;28;20035;-70
2021/01/05 10:03:33;;;;;;;39.05;20.85;;;;;;;2.12;87.89;98366.59;4953953;28;20049;-70
2021/01/05 10:05:59;;;;;;;34.25;19.92;;;;;;;2.04;86.89;98364.84;4953959;28;20042;-69
2021/01/05 10:08:24;;;;;;;33.40;20.77;;;;;;;1.87;87.59;98370.63;4953824;28;20082;-69
2021/01/05 10:10:49;;;;;;;34.65;21.02;;;;;;;1.86;88.05;98376.59;4953697;28;20030;-69
2021/01/05 10:13:15;;;;;;;38.65;20.10;;;;;;;1.77;88.88;98390.97;4953779;28;20037;-69
2021/01/05 10:15:41;;;;;;;34.42;19.83;;;;;;;1.97;89.04;98385.19;4953916;28;20042;-70
2021/01/05 10:18:06;;;;;;;34.60;19.70;;;;;;;1.90;88.35;98383.44;4953512;28;20023;-70
2021/01/05 10:20:32;;;;;;;39.20;21.17;;;;;;;1.91;88.49;98380.03;4953604;28;20020;-68
2021/01/05 10:22:58;;;;;;;33.60;19.58;;;;;;;1.84;89.10;98380.81;4953639;28;20031;-69
2021/01/05 10:25:23;;;;;;;31.85;18.08;;;;;;;1.97;88.61;98372.44;4953582;28;20066;-69
2021/01/05 10:27:49;;;;;;;35.15;18.52;;;;;;;1.90;89.07;98373.22;4953791;28;20135;-70
2021/01/05 10:30:16;;;;;;;32.90;19.52;;;;;;;2.10;88.13;98361.50;4953530;28;20024;-71
2021/01/05 10:32:42;;;;;;;30.50;17.70;;;;;;;2.10;87.91;98360.63;4953212;28;20031;-70
2021/01/05 10:35:09;;;;;;;36.33;18.85;;;;;;;2.15;87.88;98364.09;4953541;28;20031;-69
2021/01/05 10:37:34;;;;;;;32.47;17.92;;;;;;;2.10;87.81;98358.09;4953761;28;20043;-70
2021/01/05 10:39:59;;;;;;;31.73;18.40;;;;;;;2.10;87.59;98361.50;4953633;28;20050;-70
2021/01/05 10:42:24;;;;;;;32.75;18.08;;;;;;;1.98;88.24;98366.47;4953435;28;20080;-70
2021/01/05 10:44:50;;;;;;;37.17;19.35;;;;;;;2.02;88.57;98365.66;4953422;29;20024;-68
2021/01/05 10:47:15;;;;;;;36.15;20.70;;;;;;;2.07;88.27;98361.44;4968469;28;20039;-68
2021/01/05 10:49:41;;;;;;;32.22;18.65;;;;;;;2.11;88.08;98358.09;4959873;28;20018;-67
2021/01/05 10:52:14;;;;;;;37.47;20.52;;;;;;;2.25;88.37;98356.50;4968264;28;20027;-67
2021/01/05 10:54:40;;;;;;;41.45;19.67;;;;;;;2.42;86.77;98359.22;4965412;28;20031;-68
2021/01/05 10:57:07;;;;;;;32.40;18.77;;;;;;;2.45;86.73;98358.34;4964856;28;20019;-68
2021/01/05 10:59:33;;;;;;;33.65;19.85;;;;;;;2.23;87.10;98350.53;4964934;28;20074;-68
2021/01/05 11:02:02;;;;;;;35.45;21.80;;;;;;;2.17;87.71;98353.03;4956559;28;20039;-68
2021/01/05 11:04:28;;;;;;;37.67;22.42;;;;;;;2.21;87.43;98341.97;4957228;28;20046;-68
2021/01/05 11:06:56;;;;;;;35.65;18.63;;;;;;;2.20;87.31;98337.72;4957006;28;20476;-68
2021/01/05 11:09:23;;;;;;;32.75;19.70;;;;;;;2.26;87.36;98339.47;4956766;28;20143;-68
2021/01/05 11:11:58;;;;;;;31.85;19.33;;;;;;;2.25;87.14;98340.31;4956657;28;20539;-68
2021/01/05 11:14:24;;;;;;;32.60;20.02;;;;;;;2.30;86.77;98339.50;4956507;28;20035;-68
2021/01/05 11:16:49;;;;;;;32.97;19.52;;;;;;;2.27;86.70;98334.38;4956899;28;20499;-68
2021/01/05 11:19:14;;;;;;;33.45;19.48;;;;;;;2.27;87.05;98339.50;4955227;28;20023;-68
2021/01/05 11:21:40;;;;;;;41.03;21.98;;;;;;;2.33;87.18;98332.72;4956271;28;20042;-68
2021/01/05 11:24:07;;;;;;;42.92;19.98;;;;;;;2.27;86.70;98334.38;4956156;28;20113;-68
2021/01/05 11:26:36;;;;;;;37.38;20.90;;;;;;;2.39;86.44;98330.19;4956433;28;20027;-68
2021/01/05 11:29:02;;;;;;;34.70;20.67;;;;;;;2.47;86.18;98326.00;4956583;28;20074;-69
2021/01/05 11:31:28;;;;;;;36.72;19.42;;;;;;;2.47;86.50;98333.69;4956182;28;20110;-69
2021/01/05 11:33:53;;;;;;;31.83;19.77;;;;;;;2.49;86.90;98326.88;4956524;28;20063;-68
2021/01/05 11:36:26;;;;;;;35.72;20.58;;;;;;;2.43;86.34;98332.78;4956544;28;20034;-69
2021/01/05 11:38:53;;;;;;;38.95;21.67;;;;;;;2.33;86.93;98319.94;4956245;28;20030;-69
2021/01/05 11:41:30;;;;;;;38.33;21.00;;;;;;;2.42;86.78;98322.53;4956035;28;20118;-69
2021/01/05 11:43:56;;;;;;;35.67;19.80;;;;;;;2.31;87.04;98320.75;4956237;28;20039;-69
2021/01/05 11:46:22;;;;;;;34.17;20.40;;;;;;;2.35;86.90;98315.69;4956220;28;20066;-69
2021/01/05 11:48:47;;;;;;;37.97;20.50;;;;;;;2.72;86.18;98316.78;4956331;28;20626;-68
2021/01/05 11:51:21;;;;;;;32.65;18.48;;;;;;;2.61;85.16;98306.50;4955316;28;20393;-68
2021/01/05 11:53:46;;;;;;;35.67;19.98;;;;;;;2.42;85.79;98313.19;4955519;28;20058;-69
2021/01/05 11:56:33;;;;;;;34.15;20.67;;;;;;;2.35;86.82;98313.13;4955233;28;20043;-68
2021/01/05 11:58:59;;;;;;;32.58;19.48;;;;;;;2.40;86.82;98311.47;4955467;28;20032;-69
2021/01/05 12:01:25;;;;;;;33.38;20.40;;;;;;;2.37;86.65;98313.97;4970772;28;20034;-69
2021/01/05 12:03:51;;;;;;;35.53;19.27;;;;;;;2.39;86.37;98312.31;4974947;28;20511;-68
2021/01/05 12:06:22;;;;;;;33.72;19.95;;;;;;;2.30;86.56;98303.72;4975028;28;20030;-68
2021/01/05 12:08:50;;;;;;;34.13;19.98;;;;;;;2.32;86.96;98296.06;4975013;28;20548;-69
2021/01/05 12:11:21;;;;;;;37.63;20.58;;;;;;;2.35;86.85;98305.47;4955276;28;20031;-70
2021/01/05 12:13:47;;;;;;;35.45;20.55;;;;;;;2.49;86.42;98298.75;4955755;28;20115;-70
2021/01/05 12:16:23;;;;;;;37.92;19.92;;;;;;;2.46;86.11;98304.66;4955672;28;20102;-69
2021/01/05 12:18:48;;;;;;;33.67;19.33;;;;;;;2.80;85.03;98292.97;4955631;28;20607;-69
2021/01/05 12:21:27;;;;;;;36.22;20.58;;;;;;;2.89;85.13;98293.84;4953891;28;20178;-67
2021/01/05 12:23:53;;;;;;;39.37;21.87;;;;;;;2.68;85.06;98295.44;4955649;28;20030;-69
2021/01/05 12:26:31;;;;;;;36.30;20.85;;;;;;;2.57;85.91;98291.97;4955228;28;20027;-69
2021/01/05 12:28:58;;;;;;;37.38;21.67;;;;;;;2.37;86.75;98294.41;4955629;28;20034;-69
2021/01/05 12:31:24;;;;;;;36.83;20.80;;;;;;;2.64;86.65;98298.81;4954941;28;20035;-69
2021/01/05 12:33:50;;;;;;;34.78;20.40;;;;;;;2.34;86.97;98304.59;4955652;28;20074;-69
2021/01/05 12:36:31;;;;;;;38.78;20.48;;;;;;;2.43;86.28;98298.69;4955469;28;20380;-69
2021/01/05 12:38:57;;;;;;;35.97;20.38;;;;;;;2.60;85.21;98299.66;4955118;28;20110;-69
2021/01/05 12:41:31;;;;;;;35.88;20.83;;;;;;;2.64;85.94;98296.25;4955008;28;20031;-69
2021/01/05 12:43:56;;;;;;;35.40;19.85;;;;;;;2.68;85.89;98290.31;4953969;29;20443;-69
2021/01/05 12:46:26;;;;;;;35.05;20.67;;;;;;;2.41;86.77;98300.38;4955089;28;20027;-69
2021/01/05 12:48:52;;;;;;;32.63;19.80;;;;;;;2.58;85.46;98293.69;4959646;28;20026;-68
2021/01/05 12:51:28;;;;;;;38.63;19.63;;;;;;;2.49;86.43;98291.06;4973881;28;20042;-69
2021/01/05 12:53:54;;;;;;;36.13;21.73;;;;;;;2.52;86.03;98289.38;4973113;28;20501;-68
2021/01/05 12:56:20;;;;;;;34.67;20.13;;;;;;;2.46;85.69;98291.03;4973974;28;20050;-69
2021/01/05 12:58:45;;;;;;;36.25;20.63;;;;;;;2.42;85.86;98291.84;4974148;28;20109;-69
2021/01/05 13:01:12;;;;;;;32.20;19.75;;;;;;;2.46;85.92;98291.03;4973852;28;20042;-69
2021/01/05 13:03:38;;;;;;;37.53;20.48;;;;;;;2.40;86.45;98293.56;4974065;28;20499;-69
2021/01/05 13:06:03;;;;;;;39.22;21.70;;;;;;;2.49;86.67;98297.03;4974084;28;20109;-70
2021/01/05 13:08:29;;;;;;;34.97;20.75;;;;;;;2.50;86.77;98297.88;4973910;28;20165;-69
2021/01/05 13:10:54;;;;;;;31.23;18.48;;;;;;;2.47;85.25;98295.31;4973669;28;20023;-69
2021/01/05 13:13:19;;;;;;;29.50;17.55;;;;;;;2.28;86.56;98299.47;4973988;28;20409;-69
2021/01/05 13:15:44;;;;;;;29.13;16.33;;;;;;;2.18;86.26;98288.31;4973569;23;20050;-78
2021/01/05 13:18:10;;;;;;;29.08;16.92;;;;;;;2.28;86.16;98292.63;4954735;29;20241;-76
2021/01/05 13:20:39;;;;;;;28.52;15.90;;;;;;;2.37;86.87;98294.41;4954250;29;20035;-77
2021/01/05 13:23:05;;;;;;;32.30;17.52;;;;;;;2.40;85.82;98289.31;4954548;28;20050;-77
2021/01/05 13:25:30;;;;;;;29.88;15.43;;;;;;;2.38;85.52;98295.25;4942481;28;20044;-76
2021/01/05 13:27:55;;;;;;;25.33;15.32;;;;;;;2.62;84.59;98289.44;4917468;29;20430;-76
2021/01/05 13:30:21;;;;;;;23.40;14.10;;;;;;;2.55;84.22;98298.75;4916123;29;20020;-76
2021/01/05 13:32:46;;;;;;;27.63;15.70;;;;;;;2.64;85.25;98287.75;4917836;29;20731;-77
2021/01/05 13:35:12;;;;;;;30.75;16.25;;;;;;;2.54;85.00;98302.19;4926924;29;20043;-77
2021/01/05 13:37:37;;;;;;;26.63;15.98;;;;;;;2.63;85.27;98297.13;4926269;29;20493;-77
2021/01/05 13:40:05;;;;;;;25.25;16.10;;;;;;;2.75;84.36;98301.44;4926091;29;20040;-77
2021/01/05 13:42:33;;;;;;;26.83;15.25;;;;;;;2.73;83.48;98306.56;4926149;29;20067;-77
2021/01/05 13:44:58;;;;;;;26.83;15.48;;;;;;;2.61;84.63;98313.28;4926179;29;20034;-77
2021/01/05 13:47:24;;;;;;;30.05;17.17;;;;;;;2.29;86.03;98306.28;4926345;29;20028;-78
2021/01/05 13:49:50;;;;;;;31.27;17.10;;;;;;;2.38;85.82;98310.59;4926047;29;20046;-72
2021/01/05 13:52:22;;;;;;;32.83;17.85;;;;;;;2.29;85.85;98312.25;4924856;29;20026;-78
2021/01/05 13:54:49;;;;;;;29.75;17.35;;;;;;;1.92;86.84;98313.63;4904778;29;20031;-72
2021/01/05 13:57:25;;;;;;;31.95;16.70;;;;;;;2.12;86.94;98318.06;4925751;29;20059;-72
2021/01/05 13:59:52;;;;;;;31.92;16.98;;;;;;;2.06;87.50;98319.72;4926153;29;20028;-75
2021/01/05 14:02:21;;;;;;;30.40;17.60;;;;;;;1.99;88.38;98323.06;4925756;29;20777;-75
2021/01/05 14:04:46;;;;;;;36.17;18.45;;;;;;;2.00;87.29;98321.38;4925982;29;21243;-72
2021/01/05 14:07:13;;;;;;;30.70;16.77;;;;;;;2.14;87.03;98327.47;4925300;29;20027;-74
2021/01/05 14:09:41;;;;;;;31.92;17.83;;;;;;;1.96;86.80;98332.41;4924111;29;20485;-75
2021/01/05 14:12:07;;;;;;;30.95;17.70;;;;;;;2.03;87.26;98324.81;4925339;29;20028;-75
2021/01/05 14:14:32;;;;;;;32.33;17.80;;;;;;;2.14;87.23;98317.25;4925638;29;20038;-75
2021/01/05 14:17:34;;;;;;;34.40;17.48;;;;;;;2.14;87.18;98326.59;5121846;27;20345;-74
2021/01/05 14:19:59;;;;;;;35.67;18.80;;;;;;;2.12;87.29;98324.00;5120999;28;20088;-74
2021/01/05 14:22:26;;;;;;;34.40;17.95;;;;;;;2.20;87.29;98326.66;5121090;28;20031;-74
2021/01/05 14:24:52;;;;;;;33.40;16.38;;;;;;;2.05;87.45;98332.50;5120484;28;20023;-74
2021/01/05 14:27:18;;;;;;;35.00;18.15;;;;;;;2.15;87.98;98326.59;5121092;27;20016;-74
2021/01/05 14:29:44;;;;;;;46.25;20.92;;;;;;;2.09;87.35;98324.00;5121578;28;20024;-74
2021/01/05 14:32:12;;;;;;;33.05;17.67;;;;;;;1.99;87.60;98328.19;5117881;27;20037;-74
2021/01/05 14:34:38;;;;;;;29.30;16.95;;;;;;;2.00;88.08;98332.44;5120653;28;20132;-74
2021/01/05 14:37:07;;;;;;;29.90;17.10;;;;;;;2.14;87.07;98332.56;5119925;27;20158;-74
2021/01/05 14:39:33;;;;;;;27.88;16.25;;;;;;;2.18;87.69;98333.47;5120638;27;20020;-74
2021/01/05 14:42:05;;;;;;;29.90;16.05;;;;;;;2.03;87.93;98334.16;5120669;28;20035;-74
2021/01/05 14:44:33;;;;;;;30.90;17.88;;;;;;;2.03;87.87;98335.03;5120478;27;20385;-75
2021/01/05 14:47:05;;;;;;;32.17;17.02;;;;;;;2.10;88.03;98341.06;5120850;28;20019;-74
2021/01/05 14:49:32;;;;;;;29.05;15.90;;;;;;;1.92;88.44;98338.31;5120661;28;20032;-74
2021/01/05 14:52:06;;;;;;;30.02;16.08;;;;;;;2.00;88.06;98335.00;5120364;27;20027;-74
2021/01/05 14:54:32;;;;;;;34.13;17.15;;;;;;;2.01;87.99;98333.31;5120542;27;20030;-75
2021/01/05 14:56:58;;;;;;;33.65;17.65;;;;;;;2.08;88.41;98332.53;5120074;28;20111;-75
2021/01/05 14:59:23;;;;;;;25.17;15.52;;;;;;;2.05;88.44;98327.38;5120470;27;20123;-75
2021/01/05 15:01:49;;;;;;;26.45;15.98;;;;;;;2.08;87.64;98332.53;5120654;27;20042;-77
2021/01/05 15:04:14;;;;;;;24.70;15.85;;;;;;;1.91;88.44;98334.06;5120549;27;20046;-76
2021/01/05 15:06:40;;;;;;;23.92;15.10;;;;;;;2.03;88.71;98334.16;5120424;27;20020;-76
2021/01/05 15:09:13;;;;;;;26.52;15.80;;;;;;;2.28;88.82;98336.09;5120265;27;21013;-76
2021/01/05 15:11:40;;;;;;;25.15;14.27;;;;;;;2.05;88.96;98337.59;5120125;28;20039;-76
2021/01/05 15:14:09;;;;;;;25.05;13.95;;;;;;;2.10;88.63;98333.38;5119965;27;20092;-76
2021/01/05 15:16:34;;;;;;;24.23;13.68;;;;;;;2.08;88.82;98323.97;5119936;28;20434;-77
2021/01/05 15:19:01;;;;;;;26.73;13.25;;;;;;;2.12;88.21;98334.25;5120287;28;20034;-76
2021/01/05 15:21:27;;;;;;;23.17;14.38;;;;;;;1.92;89.34;98333.22;5119843;27;20395;-77
2021/01/05 15:23:52;;;;;;;25.67;14.75;;;;;;;1.80;89.75;98332.28;5119315;27;20027;-76
2021/01/05 15:26:18;;;;;;;23.27;13.52;;;;;;;1.82;89.38;98339.94;5118692;27;20336;-76
2021/01/05 15:28:44;;;;;;;21.55;14.02;;;;;;;1.71;90.30;98331.31;5107873;27;20063;-77
2021/01/05 15:31:09;;;;;;;25.25;15.13;;;;;;;1.88;90.77;98328.91;5105221;28;20054;-77
2021/01/05 15:33:35;;;;;;;21.65;14.38;;;;;;;1.74;90.12;98328.78;5106115;28;20101;-77
2021/01/05 15:36:04;;;;;;;22.17;12.85;;;;;;;1.77;90.33;98334.78;5105954;28;20027;-77
2021/01/05 15:38:29;;;;;;;36.80;20.25;;;;;;;1.80;90.43;98322.06;5105826;28;20031;-76
2021/01/05 15:40:55;;;;;;;26.38;16.63;;;;;;;1.76;90.13;98320.31;5105935;28;20050;-73
2021/01/05 15:43:20;;;;;;;20.20;13.57;;;;;;;1.86;89.68;98330.63;5106088;28;20142;-73
2021/01/05 15:45:45;;;;;;;20.83;13.07;;;;;;;1.89;89.47;98320.44;5105875;28;21039;-72
2021/01/05 15:48:12;;;;;;;28.40;15.02;;;;;;;1.84;89.45;98322.06;5105917;28;20024;-68
2021/01/05 15:50:39;;;;;;;27.05;15.68;;;;;;;1.83;89.99;98315.25;5105706;28;20035;-73
2021/01/05 15:53:08;;;;;;;25.40;15.23;;;;;;;1.87;90.44;98311.88;5105846;28;20034;-74
2021/01/05 15:55:36;;;;;;;22.63;14.07;;;;;;;1.82;90.86;98316.94;5105464;28;20031;-73
2021/01/05 15:58:02;;;;;;;27.45;15.77;;;;;;;1.80;90.60;98319.50;5106266;27;20028;-73
2021/01/05 16:00:28;;;;;;;27.48;15.80;;;;;;;1.82;90.52;98313.53;5105495;28;20034;-73
2021/01/05 16:02:54;;;;;;;22.38;14.45;;;;;;;1.80;90.21;98322.06;5104398;28;20532;-73
2021/01/05 16:05:19;;;;;;;26.98;15.75;;;;;;;1.80;90.03;98322.06;5105847;28;20352;-74
2021/01/05 16:08:12;;;;;;;25.63;15.32;;;;;;;1.82;89.80;98318.66;5105614;28;20114;-74
2021/01/05 16:10:37;;;;;;;22.20;13.73;;;;;;;1.80;89.95;98311.84;5101859;28;20503;-75
2021/01/05 16:13:02;;;;;;;24.77;15.15;;;;;;;1.85;89.71;98313.59;5105576;28;20039;-73
2021/01/05 16:15:28;;;;;;;24.95;15.13;;;;;;;1.78;91.20;98320.31;5105100;28;20472;-68
2021/01/05 16:17:54;;;;;;;22.20;14.63;;;;;;;1.85;90.57;98323.81;5105407;28;20028;-73
2021/01/05 16:20:21;;;;;;;22.48;14.90;;;;;;;1.87;89.86;98319.53;5105221;28;20031;-72
2021/01/05 16:22:46;;;;;;;25.05;14.75;;;;;;;1.79;89.85;98325.47;5101827;28;20758;-73
2021/01/05 16:25:17;;;;;;;23.60;14.00;;;;;;;1.80;89.31;98327.16;5100279;27;20035;-73
2021/01/05 16:27:44;;;;;;;21.88;14.15;;;;;;;1.81;89.23;98328.00;5102199;27;20410;-73
2021/01/05 16:30:11;;;;;;;21.60;13.40;;;;;;;1.79;89.11;98330.56;5104829;28;20035;-74
2021/01/05 16:32:37;;;;;;;21.67;13.07;;;;;;;1.88;89.33;98328.91;5104762;28;20050;-77
2021/01/05 16:35:04;;;;;;;21.17;13.27;;;;;;;1.98;89.74;98325.59;5105127;27;20685;-73
2021/01/05 16:37:30;;;;;;;21.73;13.75;;;;;;;1.93;89.54;98334.91;5104940;28;20024;-71
2021/01/05 16:39:55;;;;;;;28.42;16.33;;;;;;;1.94;89.47;98337.50;5104653;28;20023;-71
2021/01/05 16:42:20;;;;;;;22.52;13.55;;;;;;;1.87;89.45;98340.84;5104771;27;21392;-72
2021/01/05 16:44:46;;;;;;;21.40;13.82;;;;;;;1.90;88.53;98340.88;5104647;28;20041;-74
2021/01/05 16:47:11;;;;;;;24.45;15.00;;;;;;;1.82;nan;98349.31;5104491;28;20080;-72
2021/01/05 16:49:36;;;;;;;25.98;15.02;;;;;;;2.00;88.52;98340.13;5104693;28;20088;-73
2021/01/05 16:52:05;;;;;;;23.38;12.95;;;;;;;2.00;87.92;98344.38;5104914;28;20035;-73
2021/01/05 16:54:31;;;;;;;18.63;13.18;;;;;;;1.99;88.11;98342.66;5104703;28;20617;-76
2021/01/05 16:56:58;;;;;;;19.23;12.52;;;;;;;1.96;87.79;98337.50;5104878;27;20023;-78
2021/01/05 16:59:23;;;;;;;21.58;13.15;;;;;;;1.90;88.18;98345.13;5104917;28;20083;-77
2021/01/05 17:01:49;;;;;;;21.73;13.25;;;;;;;1.90;88.44;98338.31;5104811;28;20023;-75
2021/01/05 17:04:16;;;;;;;46.88;26.27;;;;;;;1.91;88.75;98344.28;5104147;28;20034;-76
2021/01/05 17:06:42;;;;;;;21.55;13.00;;;;;;;1.86;88.54;98341.69;5104149;28;20084;-76
2021/01/05 17:09:12;;;;;;;22.67;14.48;;;;;;;1.96;88.55;98342.63;5104514;28;20020;-74
2021/01/05 17:11:37;;;;;;;;;;;;;;;1.90;87.97;98343.44;5104993;28;20400;-63
2021/01/05 17:14:03;;;;;;;36.42;20.30;;;;;;;1.91;89.18;98344.28;5104376;28;19915;-79
2021/01/05 17:16:28;;;;;;;32.97;17.73;;;;;;;1.84;89.06;98339.94;5104100;28;20069;-66
2021/01/05 17:18:53;;;;;;;27.75;16.25;;;;;;;1.86;89.71;98340.84;5104685;28;20023;-75
2021/01/05 17:21:23;;;;;;;23.58;14.27;;;;;;;1.97;89.71;98339.22;5104593;28;20483;-81
2021/01/05 17:23:50;;;;;;;25.67;15.95;;;;;;;1.76;90.31;98334.78;5110284;28;20023;-83
2021/01/05 17:26:23;;;;;;;27.50;16.00;;;;;;;1.80;90.81;98331.41;5114237;27;20044;-82
2021/01/05 17:28:48;;;;;;;34.88;18.67;;;;;;;1.71;90.51;98342.38;5107656;28;20141;-84